sensor_id;sensor_type;location;lat;lon;timestamp;pressure;altitude;pressure_sealevel;temperature;humidity
16580;BME280;8402;51.466;6.806;2023-04-23T00:00:53;100543.66;;;14.41;82.46
16580;BME280;8402;51.466;6.806;2023-04-23T00:03:24;100538.56;;;14.40;82.42
16580;BME280;8402;51.466;6.806;2023-04-23T00:05:56;100535.38;;;14.38;82.20
16580;BME280;8402;51.466;6.806;2023-04-23T00:08:29;100538.47;;;14.36;82.34
16580;BME280;8402;51.466;6.806;2023-04-23T00:11:01;100539.13;;;14.33;82.19
16580;BME280;8402;51.466;6.806;2023-04-23T00:13:32;100545.28;;;14.30;82.29
16580;BME280;8402;51.466;6.806;2023-04-23T00:16:03;100547.56;;;14.28;82.61
16580;BME280;8402;51.466;6.806;2023-04-23T00:18:33;100536.19;;;14.26;82.64
16580;BME280;8402;51.466;6.806;2023-04-23T00:21:03;100538.03;;;14.22;82.52
16580;BME280;8402;51.466;6.806;2023-04-23T00:23:37;100538.81;;;14.22;82.66
16580;BME280;8402;51.466;6.806;2023-04-23T00:26:07;100528.56;;;14.19;82.83
16580;BME280;8402;51.466;6.806;2023-04-23T00:28:37;100535.53;;;14.17;82.67
16580;BME280;8402;51.466;6.806;2023-04-23T00:31:07;100534.25;;;14.14;82.86
16580;BME280;8402;51.466;6.806;2023-04-23T00:33:37;100532.22;;;14.11;82.61
16580;BME280;8402;51.466;6.806;2023-04-23T00:36:07;100533.38;;;14.10;82.88
16580;BME280;8402;51.466;6.806;2023-04-23T00:38:40;100532.13;;;14.08;82.87
16580;BME280;8402;51.466;6.806;2023-04-23T00:41:10;100528.94;;;14.05;83.09
16580;BME280;8402;51.466;6.806;2023-04-23T00:43:40;100527.34;;;14.04;83.10
16580;BME280;8402;51.466;6.806;2023-04-23T00:46:11;100524.16;;;14.02;83.10
16580;BME280;8402;51.466;6.806;2023-04-23T00:48:43;100510.09;;;14.00;83.28
16580;BME280;8402;51.466;6.806;2023-04-23T00:51:15;100512.34;;;13.98;nan
16580;BME280;8402;51.466;6.806;2023-04-23T00:53:48;100527.13;;;13.97;83.32
16580;BME280;8402;51.466;6.806;2023-04-23T00:56:18;100518.50;;;13.95;83.44
16580;BME280;8402;51.466;6.806;2023-04-23T00:58:50;100517.22;;;13.93;83.45
16580;BME280;8402;51.466;6.806;2023-04-23T01:01:20;100509.38;;;13.91;83.50
16580;BME280;8402;51.466;6.806;2023-04-23T01:03:52;100509.75;;;13.90;83.60
16580;BME280;8402;51.466;6.806;2023-04-23T01:06:22;100515.97;;;13.90;83.58
16580;BME280;8402;51.466;6.806;2023-04-23T01:08:57;100517.91;;;13.90;83.72
16580;BME280;8402;51.466;6.806;2023-04-23T01:11:28;100515.97;;;13.90;83.60
16580;BME280;8402;51.466;6.806;2023-04-23T01:13:58;100513.25;;;13.90;83.63
16580;BME280;8402;51.466;6.806;2023-04-23T01:16:28;100510.53;;;13.90;83.70
16580;BME280;8402;51.466;6.806;2023-04-23T01:18:58;100515.19;;;13.90;83.50
16580;BME280;8402;51.466;6.806;2023-04-23T01:21:28;100516.69;;;13.87;83.62
16580;BME280;8402;51.466;6.806;2023-04-23T01:24:01;100513.94;;;13.87;83.83
16580;BME280;8402;51.466;6.806;2023-04-23T01:26:32;100510.44;;;13.87;83.88
16580;BME280;8402;51.466;6.806;2023-04-23T01:29:02;100511.22;;;13.87;83.83
16580;BME280;8402;51.466;6.806;2023-04-23T01:31:32;100503.03;;;13.87;83.93
16580;BME280;8402;51.466;6.806;2023-04-23T01:34:03;100501.47;;;13.86;83.68
16580;BME280;8402;51.466;6.806;2023-04-23T01:36:33;100494.88;;;13.87;83.71
16580;BME280;8402;51.466;6.806;2023-04-23T01:39:06;100487.81;;;13.86;83.76
16580;BME280;8402;51.466;6.806;2023-04-23T01:41:38;100493.28;;;13.86;83.74
16580;BME280;8402;51.466;6.806;2023-04-23T01:44:08;100493.28;;;13.86;83.71
16580;BME280;8402;51.466;6.806;2023-04-23T01:46:38;100491.66;;;13.85;83.83
16580;BME280;8402;51.466;6.806;2023-04-23T01:49:09;100494.72;;;13.84;83.41
16580;BME280;8402;51.466;6.806;2023-04-23T01:51:39;100492.34;;;13.82;83.56
16580;BME280;8402;51.466;6.806;2023-04-23T01:54:12;100498.94;;;13.81;83.56
16580;BME280;8402;51.466;6.806;2023-04-23T01:56:42;100494.63;;;13.80;83.45
16580;BME280;8402;51.466;6.806;2023-04-23T01:59:12;100485.19;;;13.77;83.31
16580;BME280;8402;51.466;6.806;2023-04-23T02:01:44;100485.09;;;13.74;83.60
16580;BME280;8402;51.466;6.806;2023-04-23T02:04:15;100493.94;;;13.71;83.15
16580;BME280;8402;51.466;6.806;2023-04-23T02:06:47;100497.34;;;13.68;83.09
16580;BME280;8402;51.466;6.806;2023-04-23T02:09:21;100497.13;;;13.61;83.11
16580;BME280;8402;51.466;6.806;2023-04-23T02:11:51;100489.16;;;13.56;83.00
16580;BME280;8402;51.466;6.806;2023-04-23T02:14:21;100485.06;;;13.49;83.12
16580;BME280;8402;51.466;6.806;2023-04-23T02:16:51;100493.13;;;13.46;82.51
16580;BME280;8402;51.466;6.806;2023-04-23T02:19:21;100494.03;;;13.38;82.79
16580;BME280;8402;51.466;6.806;2023-04-23T02:21:52;100495.03;;;13.33;82.61
16580;BME280;8402;51.466;6.806;2023-04-23T02:24:25;100499.91;;;13.28;82.94
16580;BME280;8402;51.466;6.806;2023-04-23T02:26:55;100494.34;;;13.24;83.02
16580;BME280;8402;51.466;6.806;2023-04-23T02:29:25;100493.44;;;13.20;82.87
16580;BME280;8402;51.466;6.806;2023-04-23T02:31:55;100497.94;;;13.16;82.83
16580;BME280;8402;51.466;6.806;2023-04-23T02:34:25;100495.44;;;13.11;82.86
16580;BME280;8402;51.466;6.806;2023-04-23T02:36:55;100489.03;;;13.07;82.91
16580;BME280;8402;51.466;6.806;2023-04-23T02:39:28;100483.50;;;13.03;82.97
16580;BME280;8402;51.466;6.806;2023-04-23T02:41:58;100481.75;;;12.99;83.08
16580;BME280;8402;51.466;6.806;2023-04-23T02:44:28;100484.72;;;12.93;82.90
16580;BME280;8402;51.466;6.806;2023-04-23T02:46:58;100483.78;;;12.89;82.95
16580;BME280;8402;51.466;6.806;2023-04-23T02:49:28;100479.03;;;12.86;83.06
16580;BME280;8402;51.466;6.806;2023-04-23T02:51:58;100489.44;;;12.84;83.13
16580;BME280;8402;51.466;6.806;2023-04-23T02:54:31;100485.81;;;12.80;83.00
16580;BME280;8402;51.466;6.806;2023-04-23T02:57:03;100475.13;;;12.75;83.05
16580;BME280;8402;51.466;6.806;2023-04-23T02:59:33;100484.75;;;12.73;83.08
16580;BME280;8402;51.466;6.806;2023-04-23T03:02:03;100474.84;;;12.68;83.14
16580;BME280;8402;51.466;6.806;2023-04-23T03:04:33;100481.44;;;12.67;83.51
16580;BME280;8402;51.466;6.806;2023-04-23T03:07:03;100471.19;;;12.64;83.18
16580;BME280;8402;51.466;6.806;2023-04-23T03:09:35;100469.63;;;12.63;83.48
16580;BME280;8402;51.466;6.806;2023-04-23T03:12:06;100471.88;;;12.61;83.60
16580;BME280;8402;51.466;6.806;2023-04-23T03:14:36;100468.72;;;12.59;83.54
16580;BME280;8402;51.466;6.806;2023-04-23T03:17:06;100469.84;;;12.58;83.68
16580;BME280;8402;51.466;6.806;2023-04-23T03:19:37;100465.50;;;12.57;84.12
16580;BME280;8402;51.466;6.806;2023-04-23T03:22:06;100469.34;;;12.56;84.28
16580;BME280;8402;51.466;6.806;2023-04-23T03:24:39;100461.53;;;12.54;84.71
16580;BME280;8402;51.466;6.806;2023-04-23T03:27:09;100464.94;;;12.51;85.07
16580;BME280;8402;51.466;6.806;2023-04-23T03:29:39;100462.75;;;12.45;85.19
16580;BME280;8402;51.466;6.806;2023-04-23T03:32:11;100463.41;;;12.42;85.47
16580;BME280;8402;51.466;6.806;2023-04-23T03:34:41;100452.25;;;12.34;85.80
16580;BME280;8402;51.466;6.806;2023-04-23T03:37:12;100456.78;;;12.30;86.74
16580;BME280;8402;51.466;6.806;2023-04-23T03:39:45;100451.06;;;12.23;86.91
16580;BME280;8402;51.466;6.806;2023-04-23T03:42:15;100449.34;;;12.19;87.04
16580;BME280;8402;51.466;6.806;2023-04-23T03:44:45;100453.19;;;12.18;87.40
16580;BME280;8402;51.466;6.806;2023-04-23T03:47:15;100449.22;;;12.15;87.56
16580;BME280;8402;51.466;6.806;2023-04-23T03:49:45;100438.34;;;12.15;87.81
16580;BME280;8402;51.466;6.806;2023-04-23T03:52:15;100443.78;;;12.15;87.86
16580;BME280;8402;51.466;6.806;2023-04-23T03:54:48;100443.78;;;12.15;87.86
16580;BME280;8402;51.466;6.806;2023-04-23T03:57:19;100450.31;;;12.14;87.78
16580;BME280;8402;51.466;6.806;2023-04-23T03:59:50;100440.56;;;12.13;87.91
16580;BME280;8402;51.466;6.806;2023-04-23T04:02:19;100433.22;;;12.13;87.85
16580;BME280;8402;51.466;6.806;2023-04-23T04:04:50;100437.53;;;12.15;87.73
16580;BME280;8402;51.466;6.806;2023-04-23T04:07:21;100429.69;;;12.13;87.80
16580;BME280;8402;51.466;6.806;2023-04-23T04:09:54;100437.84;;;12.13;87.70
16580;BME280;8402;51.466;6.806;2023-04-23T04:12:24;100433.53;;;12.12;87.74
16580;BME280;8402;51.466;6.806;2023-04-23T04:14:54;100436.59;;;12.10;87.48
16580;BME280;8402;51.466;6.806;2023-04-23T04:17:24;100431.50;;;12.09;87.26
16580;BME280;8402;51.466;6.806;2023-04-23T04:19:54;100421.28;;;12.06;87.26
16580;BME280;8402;51.466;6.806;2023-04-23T04:22:24;100431.69;;;12.04;87.15
16580;BME280;8402;51.466;6.806;2023-04-23T04:24:57;100424.66;;;12.03;87.21
16580;BME280;8402;51.466;6.806;2023-04-23T04:27:26;100430.09;;;12.03;87.47
16580;BME280;8402;51.466;6.806;2023-04-23T04:29:59;100433.28;;;12.05;87.43
16580;BME280;8402;51.466;6.806;2023-04-23T04:32:31;100438.72;;;12.05;87.26
16580;BME280;8402;51.466;6.806;2023-04-23T04:35:01;100435.53;;;12.03;87.17
16580;BME280;8402;51.466;6.806;2023-04-23T04:37:31;100434.13;;;11.97;87.54
16580;BME280;8402;51.466;6.806;2023-04-23T04:40:06;100437.53;;;11.94;88.07
16580;BME280;8402;51.466;6.806;2023-04-23T04:42:37;100425.72;;;11.90;89.03
16580;BME280;8402;51.466;6.806;2023-04-23T04:45:09;100425.72;;;11.90;89.31
16580;BME280;8402;51.466;6.806;2023-04-23T04:47:39;100429.56;;;11.89;89.45
16580;BME280;8402;51.466;6.806;2023-04-23T04:50:10;100438.16;;;11.91;89.96
16580;BME280;8402;51.466;6.806;2023-04-23T04:52:43;100443.28;;;11.92;90.34
16580;BME280;8402;51.466;6.806;2023-04-23T04:55:16;100436.59;;;11.90;90.92
16580;BME280;8402;51.466;6.806;2023-04-23T04:57:45;100440.56;;;11.92;91.04
16580;BME280;8402;51.466;6.806;2023-04-23T05:00:21;100444.56;;;11.95;91.36
16580;BME280;8402;51.466;6.806;2023-04-23T05:02:54;100441.63;;;12.00;91.20
16580;BME280;8402;51.466;6.806;2023-04-23T05:05:25;100444.50;;;12.03;91.22
16580;BME280;8402;51.466;6.806;2023-04-23T05:07:56;100439.16;;;12.07;91.54
16580;BME280;8402;51.466;6.806;2023-04-23T05:10:30;100438.97;;;12.12;91.78
16580;BME280;8402;51.466;6.806;2023-04-23T05:13:00;100445.03;;;12.18;92.74
16580;BME280;8402;51.466;6.806;2023-04-23T05:15:30;100442.91;;;12.23;93.46
16580;BME280;8402;51.466;6.806;2023-04-23T05:18:02;100440.97;;;12.24;94.28
16580;BME280;8402;51.466;6.806;2023-04-23T05:20:32;100444.97;;;12.26;94.25
16580;BME280;8402;51.466;6.806;2023-04-23T05:23:02;100448.13;;;12.28;94.68
16580;BME280;8402;51.466;6.806;2023-04-23T05:25:35;100445.09;;;12.30;95.60
16580;BME280;8402;51.466;6.806;2023-04-23T05:28:05;100440.44;;;12.30;95.90
16580;BME280;8402;51.466;6.806;2023-04-23T05:30:35;100440.44;;;12.30;97.15
16580;BME280;8402;51.466;6.806;2023-04-23T05:33:05;100442.16;;;12.35;95.61
16580;BME280;8402;51.466;6.806;2023-04-23T05:35:35;100444.34;;;12.42;95.85
16580;BME280;8402;51.466;6.806;2023-04-23T05:38:05;100445.94;;;12.43;95.67
16580;BME280;8402;51.466;6.806;2023-04-23T05:40:38;100436.31;;;12.45;96.70
16580;BME280;8402;51.466;6.806;2023-04-23T05:43:08;100439.50;;;12.47;95.94
16580;BME280;8402;51.466;6.806;2023-04-23T05:45:41;100431.00;;;12.49;96.12
16580;BME280;8402;51.466;6.806;2023-04-23T05:48:11;100431.00;;;12.49;96.44
16580;BME280;8402;51.466;6.806;2023-04-23T05:50:42;100432.59;;;12.50;97.09
16580;BME280;8402;51.466;6.806;2023-04-23T05:53:13;100424.09;;;12.51;96.97
16580;BME280;8402;51.466;6.806;2023-04-23T05:55:46;100427.13;;;12.50;97.56
16580;BME280;8402;51.466;6.806;2023-04-23T05:58:16;100427.63;;;12.52;97.15
16580;BME280;8402;51.466;6.806;2023-04-23T06:00:46;100428.53;;;12.56;97.01
16580;BME280;8402;51.466;6.806;2023-04-23T06:03:16;100431.25;;;12.56;97.72
16580;BME280;8402;51.466;6.806;2023-04-23T06:05:47;100431.25;;;12.56;98.31
16580;BME280;8402;51.466;6.806;2023-04-23T06:08:17;100433.97;;;12.56;97.94
16580;BME280;8402;51.466;6.806;2023-04-23T06:10:52;100439.22;;;12.61;97.94
16580;BME280;8402;51.466;6.806;2023-04-23T06:13:22;100434.56;;;12.61;99.20
16580;BME280;8402;51.466;6.806;2023-04-23T06:15:54;100434.72;;;12.65;98.98
16580;BME280;8402;51.466;6.806;2023-04-23T06:18:24;100438.34;;;12.69;98.33
16580;BME280;8402;51.466;6.806;2023-04-23T06:20:54;100448.34;;;12.77;98.02
16580;BME280;8402;51.466;6.806;2023-04-23T06:23:23;100436.78;;;12.80;98.03
16580;BME280;8402;51.466;6.806;2023-04-23T06:25:57;100432.94;;;12.81;98.62
16580;BME280;8402;51.466;6.806;2023-04-23T06:28:27;100439.28;;;12.85;98.42
16580;BME280;8402;51.466;6.806;2023-04-23T06:30:57;100440.22;;;12.89;98.41
16580;BME280;8402;51.466;6.806;2023-04-23T06:33:28;100433.44;;;12.95;98.14
16580;BME280;8402;51.466;6.806;2023-04-23T06:35:58;100435.16;;;13.00;97.98
16580;BME280;8402;51.466;6.806;2023-04-23T06:38:28;100439.22;;;13.06;97.92
16580;BME280;8402;51.466;6.806;2023-04-23T06:41:01;100430.75;;;13.08;98.22
16580;BME280;8402;51.466;6.806;2023-04-23T06:43:32;100426.88;;;13.09;98.13
16580;BME280;8402;51.466;6.806;2023-04-23T06:46:02;100426.63;;;13.14;97.98
16580;BME280;8402;51.466;6.806;2023-04-23T06:48:32;100424.84;;;13.18;98.10
16580;BME280;8402;51.466;6.806;2023-04-23T06:51:03;100419.22;;;13.23;97.70
16580;BME280;8402;51.466;6.806;2023-04-23T06:53:34;100415.78;;;13.26;97.78
16580;BME280;8402;51.466;6.806;2023-04-23T06:56:07;100413.50;;;13.28;97.73
16580;BME280;8402;51.466;6.806;2023-04-23T06:58:37;100420.81;;;13.36;97.93
16580;BME280;8402;51.466;6.806;2023-04-23T07:01:07;100415.13;;;13.54;98.09
16580;BME280;8402;51.466;6.806;2023-04-23T07:03:37;100422.72;;;13.72;98.31
16580;BME280;8402;51.466;6.806;2023-04-23T07:06:11;100414.19;;;13.86;97.83
16580;BME280;8402;51.466;6.806;2023-04-23T07:08:41;100406.44;;;14.00;97.47
16580;BME280;8402;51.466;6.806;2023-04-23T07:11:14;100411.81;;;14.25;96.58
16580;BME280;8402;51.466;6.806;2023-04-23T07:13:44;100412.28;;;14.43;96.60
16580;BME280;8402;51.466;6.806;2023-04-23T07:16:14;100405.78;;;14.59;95.71
16580;BME280;8402;51.466;6.806;2023-04-23T07:18:48;100395.78;;;14.95;95.38
16580;BME280;8402;51.466;6.806;2023-04-23T07:21:18;100395.78;;;15.27;93.83
16580;BME280;8402;51.466;6.806;2023-04-23T07:23:48;100395.75;;;15.58;93.15
16580;BME280;8402;51.466;6.806;2023-04-23T07:26:21;100384.75;;;15.90;92.52
16580;BME280;8402;51.466;6.806;2023-04-23T07:28:51;100393.19;;;16.20;91.15
16580;BME280;8402;51.466;6.806;2023-04-23T07:31:21;100372.63;;;16.49;89.48
16580;BME280;8402;51.466;6.806;2023-04-23T07:33:51;100376.97;;;16.69;88.51
16580;BME280;8402;51.466;6.806;2023-04-23T07:36:22;100378.88;;;16.88;87.86
16580;BME280;8402;51.466;6.806;2023-04-23T07:38:52;100372.97;;;17.09;85.53
16580;BME280;8402;51.466;6.806;2023-04-23T07:41:27;100371.75;;;17.33;84.46
16580;BME280;8402;51.466;6.806;2023-04-23T07:43:57;100373.81;;;17.40;80.35
16580;BME280;8402;51.466;6.806;2023-04-23T07:46:27;100372.19;;;17.61;82.34
16580;BME280;8402;51.466;6.806;2023-04-23T07:48:58;100373.25;;;17.80;79.75
16580;BME280;8402;51.466;6.806;2023-04-23T07:51:27;100373.41;;;17.91;79.85
16580;BME280;8402;51.466;6.806;2023-04-23T07:53:58;100379.81;;;18.02;78.70
16580;BME280;8402;51.466;6.806;2023-04-23T07:56:30;100372.16;;;18.18;77.28
16580;BME280;8402;51.466;6.806;2023-04-23T07:59:01;100374.59;;;18.23;75.82
16580;BME280;8402;51.466;6.806;2023-04-23T08:01:31;100375.47;;;18.31;76.72
16580;BME280;8402;51.466;6.806;2023-04-23T08:04:01;100374.84;;;18.45;76.67
16580;BME280;8402;51.466;6.806;2023-04-23T08:06:32;100362.59;;;18.72;77.83
16580;BME280;8402;51.466;6.806;2023-04-23T08:09:05;100362.78;;;18.93;76.70
16580;BME280;8402;51.466;6.806;2023-04-23T08:11:38;100364.47;;;19.09;75.42
16580;BME280;8402;51.466;6.806;2023-04-23T08:14:08;100367.31;;;19.19;75.20
16580;BME280;8402;51.466;6.806;2023-04-23T08:16:38;100370.16;;;19.30;73.35
16580;BME280;8402;51.466;6.806;2023-04-23T08:19:08;100363.53;;;19.42;74.25
16580;BME280;8402;51.466;6.806;2023-04-23T08:21:38;100357.63;;;19.40;71.10
16580;BME280;8402;51.466;6.806;2023-04-23T08:24:08;100359.22;;;19.41;71.98
16580;BME280;8402;51.466;6.806;2023-04-23T08:26:41;100351.13;;;19.62;72.22
16580;BME280;8402;51.466;6.806;2023-04-23T08:29:10;100337.38;;;19.66;68.24
16580;BME280;8402;51.466;6.806;2023-04-23T08:31:41;100340.56;;;19.75;69.01
16580;BME280;8402;51.466;6.806;2023-04-23T08:34:11;100343.78;;;19.88;69.66
16580;BME280;8402;51.466;6.806;2023-04-23T08:36:41;100345.34;;;19.92;68.24
16580;BME280;8402;51.466;6.806;2023-04-23T08:39:12;100347.00;;;20.00;68.86
16580;BME280;8402;51.466;6.806;2023-04-23T08:41:52;100338.38;;;20.20;68.56
16580;BME280;8402;51.466;6.806;2023-04-23T08:44:24;100348.25;;;20.28;68.31
16580;BME280;8402;51.466;6.806;2023-04-23T08:46:55;100347.13;;;20.43;67.77
16580;BME280;8402;51.466;6.806;2023-04-23T08:49:30;100352.28;;;20.55;66.91
16580;BME280;8402;51.466;6.806;2023-04-23T08:52:12;100344.78;;;20.45;65.25
16580;BME280;8402;51.466;6.806;2023-04-23T08:54:47;100353.44;;;20.44;65.38
16580;BME280;8402;51.466;6.806;2023-04-23T08:57:21;100354.22;;;20.48;64.15
16580;BME280;8402;51.466;6.806;2023-04-23T08:59:52;100348.69;;;20.41;62.89
16580;BME280;8402;51.466;6.806;2023-04-23T09:02:22;100349.47;;;20.41;64.77
16580;BME280;8402;51.466;6.806;2023-04-23T09:04:53;100343.25;;;20.66;65.59
16580;BME280;8402;51.466;6.806;2023-04-23T09:07:23;100351.09;;;20.56;63.62
16580;BME280;8402;51.466;6.806;2023-04-23T09:09:53;100348.69;;;20.37;63.29
16580;BME280;8402;51.466;6.806;2023-04-23T09:12:26;100342.84;;;20.53;65.63
16580;BME280;8402;51.466;6.806;2023-04-23T09:14:56;100341.69;;;20.65;66.15
16580;BME280;8402;51.466;6.806;2023-04-23T09:17:28;100340.09;;;20.85;64.92
16580;BME280;8402;51.466;6.806;2023-04-23T09:19:58;100340.13;;;20.96;63.36
16580;BME280;8402;51.466;6.806;2023-04-23T09:22:40;100323.56;;;21.17;63.88
16580;BME280;8402;51.466;6.806;2023-04-23T09:25:14;100331.44;;;21.40;64.37
16580;BME280;8402;51.466;6.806;2023-04-23T09:27:49;100325.50;;;21.27;61.56
16580;BME280;8402;51.466;6.806;2023-04-23T09:30:19;100325.94;;;21.04;59.79
16580;BME280;8402;51.466;6.806;2023-04-23T09:32:53;100323.97;;;20.80;60.83
16580;BME280;8402;51.466;6.806;2023-04-23T09:35:26;100323.97;;;21.08;62.36
16580;BME280;8402;51.466;6.806;2023-04-23T09:38:00;100319.59;;;21.36;62.12
16580;BME280;8402;51.466;6.806;2023-04-23T09:40:33;100317.25;;;21.24;59.68
16580;BME280;8402;51.466;6.806;2023-04-23T09:43:09;100314.09;;;21.14;57.98
16580;BME280;8402;51.466;6.806;2023-04-23T09:45:47;100315.66;;;21.12;59.45
16580;BME280;8402;51.466;6.806;2023-04-23T09:48:17;100310.56;;;21.17;59.78
16580;BME280;8402;51.466;6.806;2023-04-23T09:50:47;100314.09;;;21.32;61.01
16580;BME280;8402;51.466;6.806;2023-04-23T09:53:18;100320.78;;;21.21;57.54
16580;BME280;8402;51.466;6.806;2023-04-23T09:55:51;100319.53;;;21.57;59.59
16580;BME280;8402;51.466;6.806;2023-04-23T09:58:24;100305.66;;;21.86;58.15
16580;BME280;8402;51.466;6.806;2023-04-23T10:01:05;100303.88;;;21.29;54.77
16580;BME280;8402;51.466;6.806;2023-04-23T10:03:41;100305.38;;;21.48;58.36
16580;BME280;8402;51.466;6.806;2023-04-23T10:06:12;100310.88;;;21.55;57.00
16580;BME280;8402;51.466;6.806;2023-04-23T10:09:03;100289.88;;;21.86;57.78
16580;BME280;8402;51.466;6.806;2023-04-23T10:11:34;100303.53;;;22.22;58.95
16580;BME280;8402;51.466;6.806;2023-04-23T10:14:07;100294.81;;;22.31;55.15
16580;BME280;8402;51.466;6.806;2023-04-23T10:16:38;100294.84;;;22.23;54.67
16580;BME280;8402;51.466;6.806;2023-04-23T10:19:17;100285.78;;;22.23;55.32
16580;BME280;8402;51.466;6.806;2023-04-23T10:21:49;100283.78;;;22.23;56.64
16580;BME280;8402;51.466;6.806;2023-04-23T10:24:38;100293.72;;;22.10;54.41
16580;BME280;8402;51.466;6.806;2023-04-23T10:27:11;100281.91;;;21.99;54.55
16580;BME280;8402;51.466;6.806;2023-04-23T10:30:06;100273.75;;;21.70;53.98
16580;BME280;8402;51.466;6.806;2023-04-23T10:32:37;100272.56;;;21.71;54.84
16580;BME280;8402;51.466;6.806;2023-04-23T10:35:08;100275.66;;;21.88;55.60
16580;BME280;8402;51.466;6.806;2023-04-23T10:37:38;100270.44;;;22.04;54.69
16580;BME280;8402;51.466;6.806;2023-04-23T10:40:11;100262.47;;;22.20;53.88
16580;BME280;8402;51.466;6.806;2023-04-23T10:42:42;100254.44;;;22.44;54.93
16580;BME280;8402;51.466;6.806;2023-04-23T10:45:17;100259.81;;;22.62;54.44
16580;BME280;8402;51.466;6.806;2023-04-23T10:47:52;100250.91;;;22.85;53.48
16580;BME280;8402;51.466;6.806;2023-04-23T10:50:25;100246.28;;;22.74;54.24
16580;BME280;8402;51.466;6.806;2023-04-23T10:52:56;100244.38;;;22.12;51.64
16580;BME280;8402;51.466;6.806;2023-04-23T10:55:28;100245.19;;;22.09;52.37
16580;BME280;8402;51.466;6.806;2023-04-23T10:58:00;100238.69;;;22.34;54.27
16580;BME280;8402;51.466;6.806;2023-04-23T11:00:44;100237.75;;;22.58;54.27
16580;BME280;8402;51.466;6.806;2023-04-23T11:03:27;100239.91;;;22.77;52.87
16580;BME280;8402;51.466;6.806;2023-04-23T11:06:00;100236.34;;;22.80;51.50
16580;BME280;8402;51.466;6.806;2023-04-23T11:08:31;100227.53;;;22.96;52.24
16580;BME280;8402;51.466;6.806;2023-04-23T11:11:06;100231.88;;;22.97;51.48
16580;BME280;8402;51.466;6.806;2023-04-23T11:13:50;100223.00;;;22.72;51.47
16580;BME280;8402;51.466;6.806;2023-04-23T11:16:22;100217.91;;;22.67;50.90
16580;BME280;8402;51.466;6.806;2023-04-23T11:19:00;100218.03;;;22.49;51.94
16580;BME280;8402;51.466;6.806;2023-04-23T11:21:56;100209.38;;;22.47;52.50
16580;BME280;8402;51.466;6.806;2023-04-23T11:24:28;100208.00;;;22.69;53.25
16580;BME280;8402;51.466;6.806;2023-04-23T11:26:59;100197.06;;;22.55;51.22
16580;BME280;8402;51.466;6.806;2023-04-23T11:29:30;100209.38;;;22.47;52.09
16580;BME280;8402;51.466;6.806;2023-04-23T11:32:02;100202.22;;;22.53;53.34
16580;BME280;8402;51.466;6.806;2023-04-23T11:34:38;100185.56;;;22.60;51.83
16580;BME280;8402;51.466;6.806;2023-04-23T11:37:10;100185.53;;;22.64;52.40
16580;BME280;8402;51.466;6.806;2023-04-23T11:39:42;100179.97;;;22.67;51.78
16580;BME280;8402;51.466;6.806;2023-04-23T11:42:14;100181.53;;;22.72;52.12
16580;BME280;8402;51.466;6.806;2023-04-23T11:44:46;100176.38;;;22.70;51.94
16580;BME280;8402;51.466;6.806;2023-04-23T11:47:19;100172.47;;;22.64;50.15
16580;BME280;8402;51.466;6.806;2023-04-23T11:49:49;100177.84;;;22.41;49.59
16580;BME280;8402;51.466;6.806;2023-04-23T11:52:19;100173.06;;;22.45;52.12
16580;BME280;8402;51.466;6.806;2023-04-23T11:54:49;100167.47;;;22.52;50.94
16580;BME280;8402;51.466;6.806;2023-04-23T11:57:20;100168.22;;;22.56;51.73
16580;BME280;8402;51.466;6.806;2023-04-23T11:59:52;100164.38;;;22.46;49.27
16580;BME280;8402;51.466;6.806;2023-04-23T12:02:25;100166.78;;;22.41;49.87
16580;BME280;8402;51.466;6.806;2023-04-23T12:04:55;100166.63;;;22.10;48.01
16580;BME280;8402;51.466;6.806;2023-04-23T12:07:33;100167.09;;;21.98;49.69
16580;BME280;8402;51.466;6.806;2023-04-23T12:10:04;100163.88;;;22.10;50.16
16580;BME280;8402;51.466;6.806;2023-04-23T12:12:35;100162.16;;;22.27;50.68
16580;BME280;8402;51.466;6.806;2023-04-23T12:15:07;100144.66;;;22.41;50.09
16580;BME280;8402;51.466;6.806;2023-04-23T12:17:39;100144.22;;;22.46;48.70
16580;BME280;8402;51.466;6.806;2023-04-23T12:20:16;100135.94;;;22.46;49.27
16580;BME280;8402;51.466;6.806;2023-04-23T12:22:47;100133.53;;;22.51;49.41
16580;BME280;8402;51.466;6.806;2023-04-23T12:25:21;100133.09;;;22.53;48.08
16580;BME280;8402;51.466;6.806;2023-04-23T12:27:51;100133.44;;;22.17;45.46
16580;BME280;8402;51.466;6.806;2023-04-23T12:30:21;100133.84;;;22.12;46.18
16580;BME280;8402;51.466;6.806;2023-04-23T12:32:58;100124.31;;;22.20;47.98
16580;BME280;8402;51.466;6.806;2023-04-23T12:35:38;100123.09;;;22.25;47.40
16580;BME280;8402;51.466;6.806;2023-04-23T12:38:20;100120.41;;;22.14;45.59
16580;BME280;8402;51.466;6.806;2023-04-23T12:40:54;100112.34;;;22.34;46.70
16580;BME280;8402;51.466;6.806;2023-04-23T12:43:25;100113.25;;;22.24;44.58
16580;BME280;8402;51.466;6.806;2023-04-23T12:45:55;100113.81;;;22.01;44.60
16580;BME280;8402;51.466;6.806;2023-04-23T12:48:28;100103.13;;;21.99;45.01
16580;BME280;8402;51.466;6.806;2023-04-23T12:50:59;100094.25;;;22.30;47.16
16580;BME280;8402;51.466;6.806;2023-04-23T12:53:30;100095.53;;;22.59;47.68
16580;BME280;8402;51.466;6.806;2023-04-23T12:56:00;100095.94;;;22.58;47.47
16580;BME280;8402;51.466;6.806;2023-04-23T12:58:30;100087.66;;;22.54;46.85
16580;BME280;8402;51.466;6.806;2023-04-23T13:01:00;100083.78;;;22.48;46.18
16580;BME280;8402;51.466;6.806;2023-04-23T13:03:33;100077.25;;;22.69;47.16
16580;BME280;8402;51.466;6.806;2023-04-23T13:06:03;100080.63;;;22.84;47.58
16580;BME280;8402;51.466;6.806;2023-04-23T13:08:33;100065.84;;;23.01;47.35
16580;BME280;8402;51.466;6.806;2023-04-23T13:11:04;100069.78;;;23.00;46.32
16580;BME280;8402;51.466;6.806;2023-04-23T13:13:34;100066.53;;;23.09;45.86
16580;BME280;8402;51.466;6.806;2023-04-23T13:16:04;100063.88;;;22.98;43.59
16580;BME280;8402;51.466;6.806;2023-04-23T13:18:37;100065.09;;;22.97;45.01
16580;BME280;8402;51.466;6.806;2023-04-23T13:21:08;100052.44;;;22.96;45.16
16580;BME280;8402;51.466;6.806;2023-04-23T13:23:38;100045.88;;;23.13;45.52